createdAt,value
2022-09-02T00:02:55.147Z,20.28
2022-09-02T00:07:57.859Z,19.51
2022-09-02T00:13:00.591Z,19.98
2022-09-02T00:18:15.521Z,19.85
2022-09-02T00:24:18.729Z,19.77
2022-09-02T00:30:09.050Z,20.36
2022-09-02T00:35:13.086Z,19.55
2022-09-02T00:40:17.222Z,20.11
2022-09-02T00:45:21.872Z,19.24
2022-09-02T00:50:33.398Z,19.77
2022-09-02T00:55:42.094Z,19.57
2022-09-02T01:00:47.504Z,19.44
2022-09-02T01:05:53.238Z,19.59
2022-09-02T01:10:56.837Z,18.28
2022-09-02T01:16:10.684Z,18.85
2022-09-02T01:21:16.212Z,18.78
2022-09-02T01:26:20.383Z,18.71
2022-09-02T01:31:23.153Z,19.76
2022-09-02T01:36:25.893Z,19.72
2022-09-02T01:41:30.027Z,19.82
2022-09-02T01:46:33.770Z,19.16
2022-09-02T01:51:39.944Z,19.58
2022-09-02T01:56:44.064Z,20.12
2022-09-02T02:01:46.956Z,19.43
2022-09-02T02:06:52.370Z,19.15
2022-09-02T02:11:57.837Z,19.82
2022-09-02T02:17:01.026Z,18.37
2022-09-02T02:22:04.394Z,19.52
2022-09-02T02:27:10.457Z,19.82
2022-09-02T02:32:16.271Z,19.72
2022-09-02T02:37:23.407Z,17.93
2022-09-02T02:42:29.622Z,19.20
2022-09-02T02:47:32.433Z,19.13
2022-09-02T02:52:35.411Z,19.73
2022-09-02T02:57:41.918Z,19.65
2022-09-02T03:02:44.953Z,19.77
2022-09-02T03:07:49.012Z,19.86
2022-09-02T03:12:55.652Z,19.08
2022-09-02T03:17:58.944Z,19.65
2022-09-02T03:23:03.758Z,18.67
2022-09-02T03:28:09.503Z,19.20
2022-09-02T03:33:13.070Z,18.87
2022-09-02T03:38:15.872Z,19.03
2022-09-02T03:43:21.292Z,18.40
2022-09-02T03:48:25.036Z,19.45
2022-09-02T03:53:28.776Z,19.21
2022-09-02T03:58:38.190Z,18.86
2022-09-02T04:03:41.705Z,19.15
2022-09-02T04:08:44.917Z,18.51
2022-09-02T04:13:51.678Z,18.63
2022-09-02T04:18:58.387Z,18.64
2022-09-02T04:24:05.718Z,18.31
2022-09-02T04:29:10.335Z,19.07
2022-09-02T04:34:13.428Z,19.09
2022-09-02T04:39:17.273Z,18.50
2022-09-02T04:44:21.380Z,18.98
2022-09-02T04:49:24.694Z,17.37
2022-09-02T04:54:29.835Z,18.97
2022-09-02T04:59:37.277Z,19.14
2022-09-02T05:04:43.933Z,19.04
2022-09-02T05:09:57.955Z,18.86
2022-09-02T05:15:03.134Z,17.88
2022-09-02T05:20:10.739Z,17.72
2022-09-02T05:25:14.529Z,18.80
2022-09-02T05:30:18.695Z,18.15
2022-09-02T05:35:35.592Z,19.15
2022-09-02T05:40:45.722Z,19.29
2022-09-02T05:45:50.508Z,18.74
2022-09-02T05:50:57.497Z,18.78
2022-09-02T05:56:05.449Z,19.03
2022-09-02T06:01:12.784Z,18.96
2022-09-02T06:06:16.095Z,18.91
2022-09-02T06:11:19.376Z,18.99
2022-09-02T06:16:26.257Z,19.36
2022-09-02T06:21:29.644Z,19.81
2022-09-02T06:26:34.461Z,19.93
2022-09-02T06:31:41.707Z,19.83
2022-09-02T06:36:46.797Z,19.13
2022-09-02T06:41:52.046Z,19.47
2022-09-02T06:47:00.430Z,19.42
2022-09-02T06:52:05.572Z,19.39
2022-09-02T06:57:11.800Z,20.03
2022-09-02T07:07:24.298Z,20.21
2022-09-02T07:12:29.802Z,20.41
2022-09-02T07:17:39.158Z,20.46
2022-09-02T07:22:46.609Z,20.57
2022-09-02T07:27:53.050Z,20.52
2022-09-02T07:32:57.671Z,20.58
2022-09-02T07:38:04.177Z,20.34
2022-09-02T07:43:10.621Z,20.43
2022-09-02T07:48:15.889Z,20.42
2022-09-02T07:53:20.283Z,20.37
2022-09-02T07:58:26.422Z,20.35
2022-09-02T08:03:31.188Z,20.50
2022-09-02T08:08:35.764Z,20.64
2022-09-02T08:13:42.156Z,20.98
2022-09-02T08:18:46.243Z,21.24
2022-09-02T08:23:50.509Z,21.43
2022-09-02T08:28:53.698Z,21.63
2022-09-02T08:33:59.238Z,21.61
2022-09-02T08:39:20.618Z,21.84
2022-09-02T08:44:25.320Z,21.93
2022-09-02T08:49:33.747Z,21.98
2022-09-02T08:54:45.083Z,22.05
2022-09-02T08:59:48.867Z,22.06
2022-09-02T09:05:09.396Z,22.30
2022-09-02T09:10:17.526Z,22.03
2022-09-02T09:15:26.329Z,22.52
2022-09-02T09:20:47.255Z,22.66
2022-09-02T09:25:53.331Z,22.75
2022-09-02T09:30:55.995Z,22.96
2022-09-02T09:36:00.004Z,23.09
2022-09-02T09:41:29.951Z,22.91
2022-09-02T09:46:33.187Z,22.87
2022-09-02T09:51:53.604Z,23.33
2022-09-02T09:57:16.225Z,23.32
2022-09-02T10:02:24.385Z,23.44
2022-09-02T10:07:38.428Z,23.27
2022-09-02T10:12:42.619Z,23.60
2022-09-02T10:17:53.353Z,23.69
2022-09-02T10:23:22.057Z,23.74
2022-09-02T10:28:38.682Z,23.84
2022-09-02T10:33:52.765Z,23.87
2022-09-02T10:39:09.413Z,23.65
2022-09-02T10:44:30.266Z,23.41
2022-09-02T10:49:55.163Z,23.35
2022-09-02T10:55:07.925Z,23.76
2022-09-02T11:00:16.255Z,23.84
2022-09-02T11:05:24.843Z,23.06
2022-09-02T11:10:32.492Z,22.92
2022-09-02T11:15:46.166Z,23.98
2022-09-02T11:21:05.639Z,23.91
2022-09-02T11:26:16.909Z,24.14
2022-09-02T11:31:25.387Z,24.26
2022-09-02T11:36:33.247Z,24.15
2022-09-02T11:41:50.695Z,24.42
2022-09-02T11:47:10.110Z,24.28
2022-09-02T11:52:39.606Z,24.54
2022-09-02T11:57:44.411Z,24.63
2022-09-02T12:02:54.529Z,24.71
2022-09-02T12:07:59.608Z,25.35
2022-09-02T12:13:08.113Z,25.51
2022-09-02T12:18:32.170Z,25.70
2022-09-02T12:24:10.210Z,25.81
2022-09-02T12:29:33.163Z,25.75
2022-09-02T12:34:56.667Z,25.51
2022-09-02T12:40:13.174Z,25.43
2022-09-02T12:45:29.265Z,25.49
2022-09-02T12:50:53.690Z,25.65
2022-09-02T12:56:01.326Z,26.11
2022-09-02T13:01:15.462Z,26.28
2022-09-02T13:06:28.128Z,26.25
2022-09-02T13:12:04.336Z,26.08
2022-09-02T13:17:36.748Z,26.07
2022-09-02T13:22:54.702Z,26.24
2022-09-02T13:28:15.772Z,26.24
2022-09-02T13:33:20.492Z,26.22
2022-09-02T13:38:25.776Z,26.52
2022-09-02T13:43:28.983Z,26.65
2022-09-02T13:48:34.979Z,26.85
2022-09-02T13:53:59.060Z,26.96
2022-09-02T13:59:02.906Z,26.86
2022-09-02T14:04:14.213Z,26.68
2022-09-02T14:09:22.878Z,26.46
2022-09-02T14:14:26.672Z,26.11
2022-09-02T14:19:30.687Z,25.98
2022-09-02T14:24:41.226Z,25.80
2022-09-02T14:29:45.772Z,25.80
2022-09-02T14:34:50.824Z,25.80
2022-09-02T14:40:06.972Z,25.81
2022-09-02T14:45:11.849Z,25.77
2022-09-02T14:50:21.731Z,25.77
2022-09-02T14:55:45.375Z,25.74
2022-09-02T15:00:53.987Z,25.64
2022-09-02T15:05:58.525Z,25.45
2022-09-02T15:11:05.540Z,25.54
2022-09-02T15:16:09.082Z,25.45
2022-09-02T15:21:13.308Z,25.52
2022-09-02T15:26:16.162Z,25.52
2022-09-02T15:31:18.928Z,25.38
2022-09-02T15:36:24.987Z,25.25
2022-09-02T15:41:28.857Z,25.03
2022-09-02T15:46:33.771Z,25.27
2022-09-02T15:51:39.045Z,25.09
2022-09-02T15:56:43.878Z,25.23
2022-09-02T16:01:48.391Z,25.22
2022-09-02T16:06:53.389Z,25.10
2022-09-02T16:11:56.758Z,24.93
2022-09-02T16:16:59.679Z,24.82
2022-09-02T16:22:04.148Z,25.05
2022-09-02T16:27:07.156Z,24.89
2022-09-02T16:32:27.404Z,25.05
2022-09-02T16:37:32.205Z,25.03
2022-09-02T16:42:38.075Z,24.83
2022-09-02T16:47:41.149Z,25.00
2022-09-02T16:52:45.269Z,25.01
2022-09-02T16:57:48.183Z,24.83
2022-09-02T17:02:51.020Z,24.71
2022-09-02T17:07:58.326Z,24.85
2022-09-02T17:13:01.760Z,24.57
2022-09-02T17:18:04.829Z,24.60
2022-09-02T17:23:11.940Z,24.73
2022-09-02T17:28:14.716Z,24.63
2022-09-02T17:33:17.527Z,24.56
2022-09-02T17:38:26.699Z,24.60
2022-09-02T17:43:31.357Z,24.50
2022-09-02T17:48:41.883Z,24.40
2022-09-02T17:53:58.694Z,24.38
2022-09-02T17:59:22.650Z,24.38
2022-09-02T18:04:38.411Z,24.41
2022-09-02T18:09:43.584Z,24.08
2022-09-02T18:14:53.780Z,24.24
2022-09-02T18:20:00.370Z,24.13
2022-09-02T18:25:16.351Z,23.88
2022-09-02T18:30:21.791Z,23.88
2022-09-02T18:35:32.714Z,23.69
2022-09-02T18:40:46.730Z,23.66
2022-09-02T18:45:51.416Z,23.54
2022-09-02T18:50:57.957Z,23.44
2022-09-02T18:56:08.392Z,23.43
2022-09-02T19:01:19.846Z,23.33
2022-09-02T19:06:24.485Z,23.26
2022-09-02T19:11:28.729Z,23.29
2022-09-02T19:16:36.877Z,23.07
2022-09-02T19:21:44.456Z,23.09
2022-09-02T19:26:49.091Z,23.14
2022-09-02T19:31:54.556Z,22.89
2022-09-02T19:36:57.467Z,22.96
2022-09-02T19:42:02.689Z,22.90
2022-09-02T19:47:50.200Z,22.95
2022-09-02T19:52:30.464Z,22.81
2022-09-02T19:57:36.650Z,22.75
2022-09-02T20:02:40.180Z,22.22
2022-09-02T20:07:43.150Z,22.54
2022-09-02T20:12:47.298Z,22.52
2022-09-02T20:17:50.326Z,22.48
2022-09-02T20:22:55.806Z,22.19
2022-09-02T20:28:14.199Z,22.31
2022-09-02T20:33:19.430Z,22.28
2022-09-02T20:38:44.577Z,21.97
2022-09-02T20:44:07.199Z,21.93
2022-09-02T20:49:22.328Z,21.65
2022-09-02T20:54:40.032Z,21.86
2022-09-02T20:59:59.297Z,21.93
2022-09-02T21:05:07.969Z,22.01
2022-09-02T21:10:16.733Z,21.74
2022-09-02T21:15:28.739Z,21.87
2022-09-02T21:20:43.930Z,21.98
2022-09-02T21:25:53.870Z,21.80
2022-09-02T21:31:04.805Z,21.79
2022-09-02T21:36:07.791Z,21.79
2022-09-02T21:41:29.905Z,21.70
2022-09-02T21:46:42.717Z,21.63
2022-09-02T21:52:02.262Z,21.44
2022-09-02T21:57:24.532Z,21.50
2022-09-02T22:02:38.821Z,21.49
2022-09-02T22:07:48.584Z,21.44
2022-09-02T22:12:52.844Z,21.46
2022-09-02T22:18:10.885Z,21.52
2022-09-02T22:23:23.450Z,20.94
2022-09-02T22:28:35.889Z,21.58
2022-09-02T22:33:48.948Z,21.58
2022-09-02T22:38:52.029Z,21.41
2022-09-02T22:44:03.567Z,21.26
2022-09-02T22:49:45.111Z,21.42
2022-09-02T22:54:48.571Z,21.35
2022-09-02T23:00:04.688Z,21.52
2022-09-02T23:05:42.945Z,21.33
2022-09-02T23:10:51.905Z,21.25
2022-09-02T23:16:06.172Z,21.09
2022-09-02T23:21:19.429Z,21.32
2022-09-02T23:26:35.295Z,20.75
2022-09-02T23:31:52.972Z,20.99
2022-09-02T23:37:09.374Z,20.79
2022-09-02T23:42:13.772Z,20.65
2022-09-02T23:47:37.641Z,20.44
2022-09-02T23:52:56.093Z,20.58
2022-09-02T23:58:08.041Z,20.44
